Time;durP1;ratioP1;P1;durP2;ratioP2;P2;SDS_P1;SDS_P2;PMS_P1;PMS_P2;Temp;Humidity;BMP_temperature;BMP_pressure;BME280_temperature;BME280_humidity;BME280_pressure;Samples;Min_cycle;Max_cycle;Signal;HPM_P1;HPM_P2
2022/04/23 00:00:21;;;;;;;0.00;0.00;;;;;;;-145.06;100.00;63404.56;10436242;28;20013;-88
2022/04/23 00:05:21;;;;;;;0.00;0.00;;;;;;;-145.06;100.00;63404.56;10433865;28;20025;-88
2022/04/23 00:10:22;;;;;;;0.03;0.03;;;;;;;-145.06;100.00;63404.56;10430975;28;20028;-88
2022/04/23 00:15:24;;;;;;;0.00;0.00;;;;;;;-145.06;100.00;63404.56;10436560;28;20256;-90
2022/04/23 00:20:25;;;;;;;0.00;0.00;;;;;;;-145.06;100.00;63404.56;10429732;28;20021;-90
2022/04/23 00:25:26;;;;;;;0.00;0.00;;;;;;;-145.06;100.00;63404.56;10437163;28;20418;-89
2022/04/23 00:30:27;;;;;;;0.00;0.00;;;;;;;-145.06;100.00;63404.56;10438096;28;20028;-89
2022/04/23 00:35:27;;;;;;;0.00;0.00;;;;;;;-145.06;100.00;63404.56;10437375;28;20108;-90
2022/04/23 00:40:28;;;;;;;0.00;0.00;;;;;;;-145.06;100.00;63404.56;10456547;28;20120;-89
2022/04/23 00:45:29;;;;;;;0.00;0.00;;;;;;;-145.06;100.00;63404.56;10432883;28;20025;-88
2022/04/23 00:50:29;;;;;;;0.00;0.00;;;;;;;-145.06;100.00;63404.56;10437413;28;20021;-89
2022/04/23 00:55:32;;;;;;;0.00;0.00;;;;;;;-145.06;100.00;63404.56;10445626;28;20306;-87
2022/04/23 01:00:33;;;;;;;0.00;0.00;;;;;;;-145.06;100.00;63404.56;10431772;28;20029;-89
2022/04/23 01:05:34;;;;;;;0.00;0.00;;;;;;;-145.06;100.00;63404.56;10427644;28;20020;-89
2022/04/23 01:10:34;;;;;;;0.08;0.08;;;;;;;-145.06;100.00;63404.56;10438237;28;20025;-90
2022/04/23 01:15:34;;;;;;;0.00;0.00;;;;;;;-145.06;100.00;63404.56;10435450;28;20484;-88
2022/04/23 01:20:36;;;;;;;0.00;0.00;;;;;;;-145.06;100.00;63404.56;10449301;28;20021;-89
2022/04/23 01:25:37;;;;;;;0.00;0.00;;;;;;;-145.06;100.00;63404.56;10433139;28;20025;-89
2022/04/23 01:30:37;;;;;;;0.10;0.10;;;;;;;-145.06;100.00;63404.56;10432888;28;20017;-89
2022/04/23 01:35:38;;;;;;;0.00;0.00;;;;;;;-145.06;100.00;63404.56;10444109;28;20063;-90
2022/04/23 01:40:38;;;;;;;0.00;0.00;;;;;;;-145.06;100.00;63404.56;10432984;28;20504;-90
2022/04/23 01:45:39;;;;;;;0.00;0.00;;;;;;;-145.06;100.00;63404.56;10429373;28;20032;-90
2022/04/23 01:50:39;;;;;;;0.00;0.00;;;;;;;-145.06;100.00;63404.56;10431617;28;20021;-89
2022/04/23 01:55:39;;;;;;;0.00;0.00;;;;;;;-145.06;100.00;63404.56;10430012;28;20082;-90
2022/04/23 02:00:39;;;;;;;0.00;0.00;;;;;;;-145.06;100.00;63404.56;10428789;28;20109;-90
2022/04/23 02:05:40;;;;;;;0.00;0.00;;;;;;;-145.06;100.00;63404.56;10428884;28;20055;-90
2022/04/23 02:10:40;;;;;;;0.00;0.00;;;;;;;-145.06;100.00;63404.56;10430702;28;20021;-90
2022/04/23 02:15:40;;;;;;;0.00;0.00;;;;;;;-145.06;100.00;63404.56;10428069;28;20257;-90
2022/04/23 02:20:41;;;;;;;0.00;0.00;;;;;;;-145.06;100.00;63404.56;10429045;28;20096;-90
2022/04/23 02:25:42;;;;;;;0.00;0.00;;;;;;;-145.06;100.00;63404.56;10430828;28;20021;-89
2022/04/23 02:30:42;;;;;;;0.00;0.00;;;;;;;-145.06;100.00;63404.56;10428993;28;20025;-90
2022/04/23 02:35:44;;;;;;;0.10;0.10;;;;;;;-145.06;100.00;63404.56;10430477;28;20060;-90
2022/04/23 02:40:45;;;;;;;0.00;0.00;;;;;;;-145.06;100.00;63404.56;10434664;28;20777;-88
2022/04/23 02:45:45;;;;;;;0.00;0.00;;;;;;;-145.06;100.00;63404.56;10435828;28;20031;-90
2022/04/23 02:50:46;;;;;;;0.00;0.00;;;;;;;-145.06;100.00;63404.56;10437329;28;20292;-89
2022/04/23 02:55:46;;;;;;;0.00;0.00;;;;;;;-145.06;100.00;63404.56;10464743;28;20033;-89
2022/04/23 03:00:47;;;;;;;0.00;0.00;;;;;;;-145.06;100.00;63404.56;10435449;28;20183;-89
2022/04/23 03:05:48;;;;;;;0.00;0.00;;;;;;;-145.06;100.00;63404.56;10435324;28;20124;-90
2022/04/23 03:10:48;;;;;;;0.00;0.00;;;;;;;-145.06;100.00;63404.56;10440191;28;20032;-89
2022/04/23 03:15:48;;;;;;;0.00;0.00;;;;;;;-145.06;100.00;63404.56;10435607;28;20028;-90
2022/04/23 03:20:48;;;;;;;0.00;0.00;;;;;;;-145.06;100.00;63404.56;10435383;28;20287;-89
2022/04/23 03:25:49;;;;;;;0.08;0.08;;;;;;;-145.06;100.00;63404.56;10439107;28;20663;-89
2022/04/23 03:30:49;;;;;;;0.00;0.00;;;;;;;-145.06;100.00;63404.56;10431859;28;20132;-90
2022/04/23 03:35:49;;;;;;;0.10;0.10;;;;;;;-145.06;100.00;63404.56;10429627;28;20546;-90
2022/04/23 03:40:53;;;;;;;0.10;0.10;;;;;;;-145.06;100.00;63404.56;10435621;28;20268;-89
2022/04/23 03:45:53;;;;;;;0.00;0.00;;;;;;;-145.06;100.00;63404.56;10437404;28;20025;-90
2022/04/23 03:50:54;;;;;;;0.00;0.00;;;;;;;-145.06;100.00;63404.56;10435021;28;20280;-89
2022/04/23 03:55:54;;;;;;;0.00;0.00;;;;;;;-145.06;100.00;63404.56;10443046;28;20388;-89
2022/04/23 04:00:54;;;;;;;0.10;0.10;;;;;;;-145.06;100.00;63404.56;10435600;28;20017;-90
2022/04/23 04:05:55;;;;;;;0.00;0.00;;;;;;;-145.06;100.00;63404.56;10431326;28;20025;-90
2022/04/23 04:10:55;;;;;;;0.00;0.00;;;;;;;-145.06;100.00;63404.56;10436210;28;20029;-90
2022/04/23 04:15:56;;;;;;;0.00;0.00;;;;;;;-145.06;100.00;63404.56;10455729;28;20021;-88
2022/04/23 04:20:58;;;;;;;0.00;0.00;;;;;;;-145.06;100.00;63404.56;10455551;28;20041;-89
2022/04/23 04:25:59;;;;;;;0.00;0.00;;;;;;;-145.06;100.00;63404.56;10433762;28;20207;-89
2022/04/23 04:36:19;;;;;;;0.00;0.00;;;;;;;-145.06;100.00;63404.56;10457245;28;20061;-90
2022/04/23 04:41:19;;;;;;;0.00;0.00;;;;;;;-145.06;100.00;63404.56;10434634;28;20016;-89
2022/04/23 04:46:20;;;;;;;0.00;0.00;;;;;;;-145.06;100.00;63404.56;10430354;28;20291;-90
2022/04/23 04:51:20;;;;;;;0.00;0.00;;;;;;;-145.06;100.00;63404.56;10437454;28;20009;-90
2022/04/23 04:56:21;;;;;;;0.00;0.00;;;;;;;-145.06;100.00;63404.56;10434128;28;20033;-91
2022/04/23 05:01:21;;;;;;;0.00;0.00;;;;;;;-145.06;100.00;63404.56;10434766;28;20287;-89
2022/04/23 05:06:22;;;;;;;0.00;0.00;;;;;;;-145.06;100.00;63404.56;10448333;28;20029;-88
2022/04/23 05:11:22;;;;;;;0.00;0.00;;;;;;;-145.06;100.00;63404.56;10428888;28;20079;-89
2022/04/23 05:16:23;;;;;;;0.00;0.00;;;;;;;-145.06;100.00;63404.56;10433169;28;20082;-90
2022/04/23 05:21:23;;;;;;;0.08;0.08;;;;;;;-145.06;100.00;63404.56;10432674;28;20034;-89
2022/04/23 05:26:23;;;;;;;0.08;0.08;;;;;;;-145.06;100.00;63404.56;10450783;28;20112;-90
2022/04/23 05:31:24;;;;;;;0.10;0.10;;;;;;;-145.06;100.00;63404.56;10433407;28;20037;-90
2022/04/23 05:36:24;;;;;;;0.10;0.10;;;;;;;-145.06;100.00;63404.56;10429556;28;20305;-89
2022/04/23 05:47:26;;;;;;;0.00;0.00;;;;;;;-145.06;100.00;63404.56;10448073;28;20017;-88
2022/04/23 05:52:26;;;;;;;0.00;0.00;;;;;;;-145.06;100.00;63404.56;10428663;28;20429;-88
2022/04/23 05:57:26;;;;;;;0.10;0.10;;;;;;;-145.06;100.00;63404.56;10438959;28;20047;-89
2022/04/23 06:02:27;;;;;;;0.10;0.10;;;;;;;-145.06;100.00;63404.56;10447170;28;20029;-89
2022/04/23 06:07:27;;;;;;;0.10;0.10;;;;;;;-145.06;100.00;63404.56;10439537;28;20056;-89
2022/04/23 06:12:51;;;;;;;0.10;0.10;;;;;;;-145.06;100.00;63404.56;10442616;28;20029;-90
2022/04/23 06:17:51;;;;;;;0.10;0.10;;;;;;;-145.06;100.00;63404.56;10456963;28;20029;-85
2022/04/23 06:22:52;;;;;;;0.10;0.10;;;;;;;-145.06;100.00;63404.56;10466392;28;20049;-84
2022/04/23 06:27:52;;;;;;;0.10;0.10;;;;;;;-145.06;100.00;63404.56;10463312;28;20080;-84
2022/04/23 06:32:52;;;;;;;0.00;0.00;;;;;;;-145.06;100.00;63404.56;10400461;28;20054;-83
2022/04/23 06:37:54;;;;;;;0.10;0.10;;;;;;;-145.06;100.00;63404.56;10426743;28;20264;-85
2022/04/23 06:42:54;;;;;;;0.10;0.10;;;;;;;-145.06;100.00;63404.56;10416216;28;20084;-84
2022/04/23 06:48:05;;;;;;;0.10;0.10;;;;;;;-145.06;100.00;63404.56;10435414;28;20025;-84
2022/04/23 06:53:05;;;;;;;0.10;0.10;;;;;;;-145.06;100.00;63404.56;10416390;28;20029;-85
2022/04/23 06:58:06;;;;;;;0.10;0.10;;;;;;;-145.06;100.00;63404.56;10434332;28;20090;-85
2022/04/23 07:03:06;;;;;;;0.10;0.10;;;;;;;-145.06;100.00;63404.56;10433436;28;20083;-85
2022/04/23 07:08:07;;;;;;;0.10;0.10;;;;;;;-145.06;100.00;63404.56;10416933;28;20112;-84
2022/04/23 07:13:08;;;;;;;0.10;0.10;;;;;;;-145.06;100.00;63404.56;10434481;28;20076;-85
2022/04/23 07:18:09;;;;;;;0.10;0.10;;;;;;;-145.06;100.00;63404.56;10430507;28;20386;-84
2022/04/23 07:28:28;;;;;;;0.10;0.10;;;;;;;-145.06;100.00;63404.56;10444263;28;20045;-84
2022/04/23 07:38:47;;;;;;;0.10;0.10;;;;;;;-145.06;100.00;63404.56;10447315;28;20085;-86
2022/04/23 07:43:47;;;;;;;0.10;0.10;;;;;;;-145.06;100.00;63404.56;10449916;28;20026;-86
2022/04/23 07:48:48;;;;;;;0.10;0.10;;;;;;;-145.06;100.00;63404.56;10429043;28;20148;-85
2022/04/23 07:53:49;;;;;;;0.10;0.10;;;;;;;-145.06;100.00;63404.56;10438951;28;20037;-86
2022/04/23 07:58:49;;;;;;;0.10;0.10;;;;;;;-145.06;100.00;63404.56;10437544;28;20385;-85
2022/04/23 08:03:49;;;;;;;0.10;0.10;;;;;;;-145.06;100.00;63404.56;10418107;28;20029;-86
2022/04/23 08:08:50;;;;;;;0.10;0.10;;;;;;;-145.06;100.00;63404.56;10418617;28;20056;-86
2022/04/23 08:13:50;;;;;;;0.10;0.10;;;;;;;-145.06;100.00;63404.56;10438114;28;20393;-86
2022/04/23 08:18:51;;;;;;;0.00;0.00;;;;;;;-145.06;100.00;63404.56;10423158;28;20648;-86
2022/04/23 08:23:51;;;;;;;0.10;0.10;;;;;;;-145.06;100.00;63404.56;10440932;28;20041;-85
2022/04/23 08:34:12;;;;;;;0.10;0.10;;;;;;;-145.06;100.00;63404.56;10438252;28;20081;-85
2022/04/23 08:39:12;;;;;;;0.10;0.10;;;;;;;-145.06;100.00;63404.56;10417044;28;20030;-86
2022/04/23 08:44:13;;;;;;;0.10;0.10;;;;;;;-145.06;100.00;63404.56;10437003;28;20083;-86
2022/04/23 08:49:16;;;;;;;0.10;0.10;;;;;;;-145.06;100.00;63404.56;10435206;28;20021;-86
2022/04/23 08:54:16;;;;;;;0.10;0.10;;;;;;;-145.06;100.00;63404.56;10440989;28;20027;-85
2022/04/23 08:59:20;;;;;;;0.08;0.08;;;;;;;-145.06;100.00;63404.56;10436416;28;20021;-85
2022/04/23 09:04:20;;;;;;;0.10;0.10;;;;;;;-145.06;100.00;63404.56;10442553;28;20025;-86
2022/04/23 09:09:25;;;;;;;0.10;0.10;;;;;;;-145.06;100.00;63404.56;10444469;28;20033;-86
2022/04/23 09:14:27;;;;;;;0.10;0.10;;;;;;;-145.06;100.00;63404.56;10473835;22;20049;-63
2022/04/23 09:24:48;;;;;;;0.10;0.10;;;;;;;-145.06;100.00;63404.56;10453602;28;20029;-62
2022/04/23 09:29:59;;;;;;;0.10;0.10;;;;;;;-145.06;100.00;63404.56;10451066;28;20029;-61
2022/04/23 09:35:17;;;;;;;0.10;0.10;;;;;;;-145.06;100.00;63404.56;10452596;28;20033;-63
2022/04/23 09:40:21;;;;;;;0.10;0.10;;;;;;;-145.06;100.00;63404.56;10453164;28;20028;-63
2022/04/23 09:45:21;;;;;;;0.10;0.10;;;;;;;-145.06;100.00;63404.56;10453016;28;20063;-63
2022/04/23 09:50:21;;;;;;;0.10;0.10;;;;;;;-145.06;100.00;63404.56;10451778;28;20063;-62
2022/04/23 09:55:23;;;;;;;0.10;0.10;;;;;;;-145.06;100.00;63404.56;10451866;28;20132;-63
2022/04/23 10:00:24;;;;;;;0.10;0.10;;;;;;;-145.06;100.00;63404.56;10451944;28;20383;-64
2022/04/23 10:05:26;;;;;;;0.10;0.10;;;;;;;-145.06;100.00;63404.56;10451774;28;20024;-64
2022/04/23 10:10:32;;;;;;;0.10;0.10;;;;;;;-145.06;100.00;63404.56;10451630;28;20105;-64
2022/04/23 10:15:33;;;;;;;0.20;0.20;;;;;;;-145.06;100.00;63404.56;10451267;28;20503;-63
2022/04/23 10:20:34;;;;;;;0.10;0.10;;;;;;;-145.06;100.00;63404.56;10451431;28;20025;-63
2022/04/23 10:25:50;;;;;;;0.10;0.10;;;;;;;-145.06;100.00;63404.56;10451164;28;20271;-63
2022/04/23 10:31:12;;;;;;;0.10;0.10;;;;;;;-145.06;100.00;63404.56;10451388;28;20526;-63
2022/04/23 10:36:13;;;;;;;0.10;0.10;;;;;;;-145.06;100.00;63404.56;10451771;28;20037;-63
2022/04/23 10:41:14;;;;;;;0.10;0.10;;;;;;;-145.06;100.00;63404.56;10451161;28;20456;-63
2022/04/23 10:46:37;;;;;;;0.10;0.10;;;;;;;-145.06;100.00;63404.56;10432415;28;20044;-62
2022/04/23 10:51:57;;;;;;;0.10;0.10;;;;;;;-145.06;100.00;63404.56;10437614;28;20337;-63
2022/04/23 10:57:07;;;;;;;0.00;0.00;;;;;;;-145.06;100.00;63404.56;10450692;28;20078;-62
2022/04/23 11:02:30;;;;;;;0.10;0.10;;;;;;;-145.06;100.00;63404.56;10438835;28;20108;-63
2022/04/23 11:12:55;;;;;;;0.10;0.10;;;;;;;-145.06;100.00;63404.56;10458283;28;20037;-63
2022/04/23 11:17:58;;;;;;;0.10;0.10;;;;;;;-145.06;100.00;63404.56;10458083;28;20249;-64
2022/04/23 11:23:00;;;;;;;0.10;0.10;;;;;;;-145.06;100.00;63404.56;10458602;28;20079;-64
2022/04/23 11:28:14;;;;;;;0.10;0.10;;;;;;;-145.06;100.00;63404.56;10458953;28;20055;-64
2022/04/23 11:33:14;;;;;;;;;;;;;;;-145.06;100.00;63404.56;10440174;28;20519;-63
2022/04/23 11:38:23;;;;;;;0.10;0.10;;;;;;;-145.06;100.00;63404.56;10457338;28;20008;-63
2022/04/23 11:43:28;;;;;;;0.10;0.10;;;;;;;-145.06;100.00;63404.56;10457794;28;20522;-63
2022/04/23 11:48:39;;;;;;;0.10;0.10;;;;;;;-145.06;100.00;63404.56;10457375;28;20476;-64
2022/04/23 11:53:58;;;;;;;0.10;0.10;;;;;;;-145.06;100.00;63404.56;10457109;28;20025;-63
2022/04/23 11:59:02;;;;;;;0.10;0.10;;;;;;;-145.06;100.00;63404.56;10456477;28;20032;-63
2022/04/23 12:04:03;;;;;;;0.10;0.10;;;;;;;-145.06;100.00;63404.56;10456442;28;20411;-63
2022/04/23 12:09:06;;;;;;;0.10;0.10;;;;;;;-145.06;100.00;63404.56;10455985;28;20024;-63
2022/04/23 12:14:08;;;;;;;0.05;0.05;;;;;;;-145.06;100.00;63404.56;10437530;28;20028;-64
2022/04/23 12:19:13;;;;;;;0.10;0.10;;;;;;;-145.06;100.00;63404.56;10456365;28;20032;-63
2022/04/23 12:24:33;;;;;;;0.10;0.10;;;;;;;-145.06;100.00;63404.56;10437669;28;20048;-64
2022/04/23 12:45:39;;;;;;;0.00;0.00;;;;;;;-145.06;100.00;63404.56;10455348;28;20029;-64
2022/04/23 12:50:42;;;;;;;0.10;0.10;;;;;;;-145.06;100.00;63404.56;10455119;28;20021;-64
2022/04/23 12:55:50;;;;;;;0.10;0.10;;;;;;;-145.06;100.00;63404.56;10454219;28;20613;-64
2022/04/23 13:00:51;;;;;;;0.10;0.10;;;;;;;-145.06;100.00;63404.56;10454913;28;20040;-63
2022/04/23 13:05:52;;;;;;;0.00;0.00;;;;;;;-145.06;100.00;63404.56;10454413;28;20032;-62
2022/04/23 13:10:52;;;;;;;0.10;0.10;;;;;;;-145.06;100.00;63404.56;10453751;28;20021;-63
2022/04/23 13:15:52;;;;;;;0.10;0.10;;;;;;;-145.06;100.00;63404.56;10453525;28;20029;-62
2022/04/23 13:20:53;;;;;;;0.10;0.10;;;;;;;-145.06;100.00;63404.56;10453110;28;20036;-63
2022/04/23 13:25:53;;;;;;;0.10;0.10;;;;;;;-145.06;100.00;63404.56;10452511;28;20036;-61
2022/04/23 13:30:54;;;;;;;0.10;0.10;;;;;;;-145.06;100.00;63404.56;10452976;28;20049;-63
2022/04/23 13:35:54;;;;;;;0.10;0.10;;;;;;;-145.06;100.00;63404.56;10452793;28;20498;-63
2022/04/23 13:40:54;;;;;;;0.10;0.10;;;;;;;-145.06;100.00;63404.56;10453233;28;20029;-63
2022/04/23 13:45:55;;;;;;;0.10;0.10;;;;;;;-145.06;100.00;63404.56;10452387;28;20036;-63
2022/04/23 13:50:56;;;;;;;0.00;0.00;;;;;;;-145.06;100.00;63404.56;10452267;28;20047;-63
2022/04/23 13:55:56;;;;;;;0.10;0.10;;;;;;;-145.06;100.00;63404.56;10452615;28;20025;-63
2022/04/23 14:00:57;;;;;;;0.10;0.10;;;;;;;-145.06;100.00;63404.56;10451845;28;20023;-64
2022/04/23 14:11:16;;;;;;;0.10;0.10;;;;;;;-145.06;100.00;63404.56;10451723;28;20017;-64
2022/04/23 14:16:16;;;;;;;0.10;0.10;;;;;;;-145.06;100.00;63404.56;10451638;28;20033;-62
2022/04/23 14:21:17;;;;;;;0.10;0.10;;;;;;;-145.06;100.00;63404.56;10451956;28;20033;-62
2022/04/23 14:26:17;;;;;;;0.10;0.10;;;;;;;-145.06;100.00;63404.56;10451890;28;20767;-64
2022/04/23 14:31:18;;;;;;;0.10;0.10;;;;;;;-145.06;100.00;63404.56;10451220;28;20052;-63
2022/04/23 14:36:18;;;;;;;0.10;0.10;;;;;;;-145.06;100.00;63404.56;10457687;28;20033;-64
2022/04/23 14:41:18;;;;;;;0.10;0.10;;;;;;;-145.06;100.00;63404.56;10460123;28;20063;-64
2022/04/23 14:46:19;;;;;;;0.10;0.10;;;;;;;-145.06;100.00;63404.56;10459417;28;20029;-63
2022/04/23 14:56:38;;;;;;;0.10;0.10;;;;;;;-145.06;100.00;63404.56;10459526;28;20404;-63
2022/04/23 15:01:39;;;;;;;0.10;0.10;;;;;;;-145.06;100.00;63404.56;10458953;28;20021;-63
2022/04/23 15:06:40;;;;;;;0.10;0.10;;;;;;;-145.06;100.00;63404.56;10458640;28;20040;-64
2022/04/23 15:11:41;;;;;;;0.10;0.10;;;;;;;-145.06;100.00;63404.56;10458121;28;20051;-64
2022/04/23 15:16:41;;;;;;;0.10;0.10;;;;;;;-145.06;100.00;63404.56;10458815;28;20035;-63
2022/04/23 15:21:41;;;;;;;0.10;0.10;;;;;;;-145.06;100.00;63404.56;10458128;28;20282;-63
2022/04/23 15:26:42;;;;;;;0.10;0.10;;;;;;;-145.06;100.00;63404.56;10457593;28;20036;-64
2022/04/23 15:31:43;;;;;;;0.10;0.10;;;;;;;-145.06;100.00;63404.56;10457585;28;20025;-64
2022/04/23 15:36:43;;;;;;;0.10;0.10;;;;;;;-145.06;100.00;63404.56;10457956;28;20098;-64
2022/04/23 15:41:43;;;;;;;0.10;0.10;;;;;;;-145.06;100.00;63404.56;10457896;28;20024;-64
2022/04/23 15:46:44;;;;;;;0.10;0.10;;;;;;;-145.06;100.00;63404.56;10456127;28;20029;-64
2022/04/23 15:51:44;;;;;;;0.10;0.10;;;;;;;-145.06;100.00;63404.56;10456913;28;20021;-63
2022/04/23 15:56:45;;;;;;;0.10;0.10;;;;;;;-145.06;100.00;63404.56;10456533;28;20040;-64
2022/04/23 16:01:46;;;;;;;0.10;0.10;;;;;;;-145.06;100.00;63404.56;10456308;28;20100;-63
2022/04/23 16:06:46;;;;;;;0.10;0.10;;;;;;;-145.06;100.00;63404.56;10456818;28;20438;-64
2022/04/23 16:11:46;;;;;;;0.10;0.10;;;;;;;-145.06;100.00;63404.56;10455937;28;20036;-63
2022/04/23 16:16:47;;;;;;;0.10;0.10;;;;;;;-145.06;100.00;63404.56;10455835;28;20104;-63
2022/04/23 16:21:47;;;;;;;0.10;0.10;;;;;;;-145.06;100.00;63404.56;10455973;28;20032;-63
2022/04/23 16:26:47;;;;;;;0.10;0.10;;;;;;;-145.06;100.00;63404.56;10456043;28;20032;-64
2022/04/23 16:31:48;;;;;;;0.10;0.10;;;;;;;-145.06;100.00;63404.56;10455170;28;20017;-64
2022/04/23 16:47:28;;;;;;;0.10;0.10;;;;;;;-145.06;100.00;63404.56;10454373;28;20032;-64
2022/04/23 16:52:28;;;;;;;0.10;0.10;;;;;;;-145.06;100.00;63404.56;10435861;28;20115;-64
2022/04/23 16:57:29;;;;;;;0.10;0.10;;;;;;;-145.06;100.00;63404.56;10436036;28;20285;-66
2022/04/23 17:02:30;;;;;;;0.10;0.10;;;;;;;-145.06;100.00;63404.56;10449076;28;20023;-63
2022/04/23 17:07:30;;;;;;;0.10;0.10;;;;;;;-145.06;100.00;63404.56;10445493;28;20056;-64
2022/04/23 17:12:30;;;;;;;0.10;0.10;;;;;;;-145.06;100.00;63404.56;10420639;28;20518;-64
2022/04/23 17:17:30;;;;;;;0.10;0.10;;;;;;;-145.06;100.00;63404.56;10429167;28;20017;-63
2022/04/23 17:22:31;;;;;;;0.10;0.10;;;;;;;-145.06;100.00;63404.56;10423027;28;20108;-63
2022/04/23 17:27:33;;;;;;;0.10;0.10;;;;;;;-145.06;100.00;63404.56;10415062;28;20025;-63
2022/04/23 17:32:33;;;;;;;0.08;0.08;;;;;;;-145.06;100.00;63404.56;10430858;28;20025;-63
2022/04/23 17:37:34;;;;;;;0.10;0.10;;;;;;;-145.06;100.00;63404.56;10433306;28;20024;-63
2022/04/23 17:42:34;;;;;;;0.10;0.10;;;;;;;-145.06;100.00;63404.56;10444133;28;20063;-64
2022/04/23 17:47:34;;;;;;;0.10;0.10;;;;;;;-145.06;100.00;63404.56;10393400;28;20025;-63
2022/04/23 17:52:34;;;;;;;0.10;0.10;;;;;;;-145.06;100.00;63404.56;10439382;28;20030;-63
2022/04/23 17:57:35;;;;;;;0.00;0.00;;;;;;;-145.06;100.00;63404.56;10440858;28;20468;-63
2022/04/23 18:07:54;;;;;;;0.00;0.00;;;;;;;-145.06;100.00;63404.56;10419517;28;20029;-63
2022/04/23 18:12:54;;;;;;;0.10;0.10;;;;;;;-145.06;100.00;63404.56;10420447;28;20037;-63
2022/04/23 18:17:55;;;;;;;0.08;0.08;;;;;;;-145.06;100.00;63404.56;10427654;28;20486;-63
2022/04/23 18:22:55;;;;;;;0.10;0.10;;;;;;;-145.06;100.00;63404.56;10442995;28;20476;-63
2022/04/23 18:27:55;;;;;;;0.00;0.00;;;;;;;-145.06;100.00;63404.56;10437073;28;20025;-63
2022/04/23 18:32:56;;;;;;;0.10;0.10;;;;;;;-145.06;100.00;63404.56;10434396;28;20108;-63
2022/04/23 18:37:56;;;;;;;0.00;0.00;;;;;;;-145.06;100.00;63404.56;10431341;28;20017;-63
2022/04/23 18:42:57;;;;;;;0.00;0.00;;;;;;;-145.06;100.00;63404.56;10418267;28;20055;-63
2022/04/23 18:47:57;;;;;;;0.10;0.10;;;;;;;-145.06;100.00;63404.56;10420171;28;20279;-63
2022/04/23 18:52:58;;;;;;;0.10;0.10;;;;;;;-145.06;100.00;63404.56;10412387;28;20503;-63
2022/04/23 18:57:58;;;;;;;0.10;0.10;;;;;;;-145.06;100.00;63404.56;10440704;28;20476;-63
2022/04/23 19:02:59;;;;;;;0.10;0.10;;;;;;;-145.06;100.00;63404.56;10441389;28;20037;-63
2022/04/23 19:08:00;;;;;;;0.10;0.10;;;;;;;-145.06;100.00;63404.56;10434192;28;20288;-63
2022/04/23 19:13:00;;;;;;;0.10;0.10;;;;;;;-145.06;100.00;63404.56;10448808;28;20492;-63
2022/04/23 19:18:01;;;;;;;0.00;0.00;;;;;;;-145.06;100.00;63404.56;10440108;28;20505;-63
2022/04/23 19:28:22;;;;;;;0.10;0.10;;;;;;;-145.06;100.00;63404.56;10442516;28;20392;-63
2022/04/23 19:33:22;;;;;;;0.00;0.00;;;;;;;-145.06;100.00;63404.56;10454106;28;20060;-63
2022/04/23 19:38:22;;;;;;;0.10;0.10;;;;;;;-145.06;100.00;63404.56;10417867;28;20079;-63
2022/04/23 19:43:24;;;;;;;0.00;0.00;;;;;;;-145.06;100.00;63404.56;10449814;28;20050;-62
2022/04/23 19:48:24;;;;;;;0.00;0.00;;;;;;;-145.06;100.00;63404.56;10412989;28;20075;-63
2022/04/23 19:53:24;;;;;;;0.07;0.07;;;;;;;-145.06;100.00;63404.56;10422599;28;20056;-62
2022/04/23 19:58:28;;;;;;;0.10;0.10;;;;;;;-145.06;100.00;63404.56;10428438;28;20024;-62
2022/04/23 20:03:29;;;;;;;0.10;0.10;;;;;;;-145.06;100.00;63404.56;10426771;28;20029;-62
2022/04/23 20:08:29;;;;;;;0.00;0.00;;;;;;;-145.06;100.00;63404.56;10422812;28;20026;-63
2022/04/23 20:13:30;;;;;;;0.10;0.10;;;;;;;-145.06;100.00;63404.56;10435864;28;20431;-63
2022/04/23 20:18:30;;;;;;;0.00;0.00;;;;;;;-145.06;100.00;63404.56;10455429;28;20056;-63
2022/04/23 20:23:33;;;;;;;0.00;0.00;;;;;;;-145.06;100.00;63404.56;10455828;28;20025;-63
2022/04/23 20:33:53;;;;;;;0.00;0.00;;;;;;;-145.06;100.00;63404.56;10444608;28;20032;-63
2022/04/23 20:38:54;;;;;;;0.00;0.00;;;;;;;-145.06;100.00;63404.56;10453559;28;20017;-63
2022/04/23 20:43:54;;;;;;;0.00;0.00;;;;;;;-145.06;100.00;63404.56;10442586;28;20024;-62
2022/04/23 20:48:55;;;;;;;0.00;0.00;;;;;;;-145.06;100.00;63404.56;10432514;28;20082;-62
2022/04/23 20:53:55;;;;;;;0.00;0.00;;;;;;;-145.06;100.00;63404.56;10452354;28;20059;-62
2022/04/23 20:58:55;;;;;;;0.00;0.00;;;;;;;-145.06;100.00;63404.56;10426769;28;20058;-63
2022/04/23 21:03:56;;;;;;;0.00;0.00;;;;;;;-145.06;100.00;63404.56;10424503;28;20271;-62
2022/04/23 21:08:56;;;;;;;0.00;0.00;;;;;;;-145.06;100.00;63404.56;10426412;28;20017;-62
2022/04/23 21:13:57;;;;;;;0.00;0.00;;;;;;;-145.06;100.00;63404.56;10420027;28;20025;-63
2022/04/23 21:18:57;;;;;;;0.00;0.00;;;;;;;-145.06;100.00;63404.56;10429082;28;20029;-63
2022/04/23 21:23:57;;;;;;;0.00;0.00;;;;;;;-145.06;100.00;63404.56;10450328;28;20039;-62
2022/04/23 21:28:57;;;;;;;0.00;0.00;;;;;;;-145.06;100.00;63404.56;10432957;28;20100;-63
2022/04/23 21:33:58;;;;;;;0.00;0.00;;;;;;;-145.06;100.00;63404.56;10426054;28;20025;-63
2022/04/23 21:38:58;;;;;;;0.00;0.00;;;;;;;-145.06;100.00;63404.56;10434155;22;20052;-68
2022/04/23 21:49:17;;;;;;;0.00;0.00;;;;;;;-145.06;100.00;63404.56;10412324;28;20030;-68
2022/04/23 21:54:18;;;;;;;0.00;0.00;;;;;;;-145.06;100.00;63404.56;10407661;28;20017;-68
2022/04/23 21:59:18;;;;;;;0.00;0.00;;;;;;;-145.06;100.00;63404.56;10392022;28;20428;-68
2022/04/23 22:04:18;;;;;;;0.00;0.00;;;;;;;-145.06;100.00;63404.56;10391960;28;20026;-68
2022/04/23 22:09:19;;;;;;;0.00;0.00;;;;;;;-145.06;100.00;63404.56;10375968;28;20037;-67
2022/04/23 22:14:19;;;;;;;0.00;0.00;;;;;;;-145.06;100.00;63404.56;10386716;28;20448;-67
2022/04/23 22:19:20;;;;;;;0.00;0.00;;;;;;;-145.06;100.00;63404.56;10399782;28;20018;-67
2022/04/23 22:24:20;;;;;;;0.00;0.00;;;;;;;-145.06;100.00;63404.56;10408261;28;20018;-68
2022/04/23 22:29:21;;;;;;;0.00;0.00;;;;;;;-145.06;100.00;63404.56;10399593;28;20465;-67
2022/04/23 22:34:22;;;;;;;0.00;0.00;;;;;;;-145.06;100.00;63404.56;10407235;28;20022;-67
2022/04/23 22:39:22;;;;;;;0.00;0.00;;;;;;;-145.06;100.00;63404.56;10402749;28;20025;-65
2022/04/23 22:44:24;;;;;;;0.00;0.00;;;;;;;-145.06;100.00;63404.56;10382260;28;20366;-66
2022/04/23 22:49:25;;;;;;;0.00;0.00;;;;;;;-145.06;100.00;63404.56;10408138;28;20030;-65
2022/04/23 22:54:25;;;;;;;0.00;0.00;;;;;;;-145.06;100.00;63404.56;10383899;28;20021;-66
2022/04/23 22:59:25;;;;;;;0.00;0.00;;;;;;;-145.06;100.00;63404.56;10416752;28;20025;-66
2022/04/23 23:04:27;;;;;;;0.00;0.00;;;;;;;-145.06;100.00;63404.56;10415029;28;20021;-66
2022/04/23 23:09:28;;;;;;;0.00;0.00;;;;;;;-145.06;100.00;63404.56;10380937;28;21688;-65
2022/04/23 23:14:28;;;;;;;0.00;0.00;;;;;;;-145.06;100.00;63404.56;10377220;28;20025;-65
2022/04/23 23:19:28;;;;;;;0.00;0.00;;;;;;;-145.06;100.00;63404.56;10387235;28;20144;-65
2022/04/23 23:24:29;;;;;;;0.00;0.00;;;;;;;-145.06;100.00;63404.56;10396745;28;20407;-66
2022/04/23 23:29:29;;;;;;;0.00;0.00;;;;;;;-145.06;100.00;63404.56;10396332;28;20026;-68
2022/04/23 23:34:29;;;;;;;0.00;0.00;;;;;;;-145.06;100.00;63404.56;10376471;28;20017;-67
2022/04/23 23:39:30;;;;;;;0.00;0.00;;;;;;;-145.06;100.00;63404.56;10396937;28;20267;-67
2022/04/23 23:44:30;;;;;;;0.00;0.00;;;;;;;-145.06;100.00;63404.56;10413166;28;20476;-67
2022/04/23 23:49:30;;;;;;;0.00;0.00;;;;;;;-145.06;100.00;63404.56;10393342;28;20029;-67
2022/04/23 23:54:30;;;;;;;0.00;0.00;;;;;;;-145.06;100.00;63404.56;10373308;28;20030;-67
2022/04/23 23:59:31;;;;;;;0.00;0.00;;;;;;;-145.06;100.00;63404.56;10373434;28;20257;-67
